createdAt,value
2019-01-20T00:01:18.997Z,60.02
2019-01-20T00:11:20.549Z,60.51
2019-01-20T00:21:22.017Z,60.46
2019-01-20T00:31:23.752Z,60.87
2019-01-20T00:41:25.157Z,60.36
2019-01-20T00:51:26.891Z,60.62
2019-01-20T01:01:28.381Z,61.57
2019-01-20T01:11:31.706Z,60.57
2019-01-20T01:21:33.395Z,60.18
2019-01-20T01:31:34.889Z,59.46
2019-01-20T01:41:39.180Z,59.77
2019-01-20T01:51:40.142Z,60.61
2019-01-20T02:01:41.723Z,60.73
2019-01-20T02:11:47.008Z,60.88
2019-01-20T02:21:46.876Z,61.63
2019-01-20T02:31:48.304Z,62.34
2019-01-20T02:41:55.121Z,61.42
2019-01-20T02:51:53.152Z,61.91
2019-01-20T03:01:54.645Z,61.14
2019-01-20T03:12:03.529Z,61.78
2019-01-20T03:21:59.653Z,62.39
2019-01-20T03:32:01.299Z,60.80
2019-01-20T03:42:03.311Z,61.03
2019-01-20T03:52:04.934Z,62.20
2019-01-20T04:02:06.370Z,63.39
2019-01-20T04:12:07.971Z,64.21
2019-01-20T04:22:09.424Z,63.79
2019-01-20T04:32:10.864Z,63.70
2019-01-20T04:42:12.360Z,63.90
2019-01-20T04:52:13.800Z,63.93
2019-01-20T05:02:15.377Z,63.44
2019-01-20T05:12:16.983Z,64.67
2019-01-20T05:22:18.420Z,63.85
2019-01-20T05:32:19.889Z,63.93
2019-01-20T05:42:21.404Z,63.85
2019-01-20T05:52:22.828Z,64.79
2019-01-20T06:02:24.266Z,64.24
2019-01-20T06:12:25.745Z,64.36
2019-01-20T06:22:27.171Z,63.88
2019-01-20T06:32:28.640Z,64.46
2019-01-20T06:42:30.165Z,64.57
2019-01-20T06:52:31.592Z,64.67
2019-01-20T07:02:33.030Z,64.32
2019-01-20T07:12:34.507Z,63.99
2019-01-20T07:22:36.292Z,63.59
2019-01-20T07:32:37.716Z,63.96
2019-01-20T07:42:39.233Z,64.31
2019-01-20T07:52:40.671Z,63.74
2019-01-20T08:02:43.313Z,63.11
2019-01-20T08:12:46.424Z,62.45
2019-01-20T08:22:48.257Z,62.11
2019-01-20T08:32:49.697Z,62.47
2019-01-20T08:42:51.323Z,62.02
2019-01-20T08:52:52.809Z,60.51
2019-01-20T09:02:54.251Z,59.57
2019-01-20T09:12:56.888Z,60.12
2019-01-20T09:22:58.457Z,59.08
2019-01-20T09:32:59.890Z,59.20
2019-01-20T09:43:01.366Z,58.21
2019-01-20T09:53:03.202Z,57.95
2019-01-20T10:03:05.004Z,57.56
2019-01-20T10:13:06.472Z,57.77
2019-01-20T10:23:08.137Z,57.67
2019-01-20T10:33:09.577Z,57.31
2019-01-20T10:43:11.237Z,57.44
2019-01-20T10:53:12.997Z,54.64
2019-01-20T11:03:14.430Z,55.87
2019-01-20T11:13:15.872Z,57.09
2019-01-20T11:23:19.250Z,57.41
2019-01-20T11:33:20.753Z,57.23
2019-01-20T11:43:22.284Z,58.27
2019-01-20T11:53:23.719Z,57.71
2019-01-20T12:03:25.192Z,56.77
2019-01-20T12:13:26.868Z,53.93
2019-01-20T12:23:28.454Z,55.01
2019-01-20T12:33:30.255Z,55.83
2019-01-20T12:43:31.685Z,57.76
2019-01-20T12:53:33.122Z,57.35
2019-01-20T13:03:34.800Z,57.95
2019-01-20T13:13:36.273Z,59.35
2019-01-20T13:23:37.874Z,59.91
2019-01-20T13:33:39.314Z,58.46
2019-01-20T13:43:40.833Z,59.28
2019-01-20T13:53:42.469Z,59.98
2019-01-20T14:03:44.017Z,60.52
2019-01-20T14:13:46.211Z,59.03
2019-01-20T14:23:48.171Z,57.85
2019-01-20T14:33:52.247Z,54.62
2019-01-20T14:43:53.686Z,54.12
2019-01-20T14:53:55.152Z,57.40
2019-01-20T15:03:56.603Z,58.37
2019-01-20T15:13:58.098Z,58.79
2019-01-20T15:24:03.769Z,58.88
2019-01-20T15:34:05.305Z,59.92
2019-01-20T15:44:07.189Z,61.48
2019-01-20T15:54:08.725Z,62.28
2019-01-20T16:04:10.167Z,62.25
2019-01-20T16:14:11.637Z,62.22
2019-01-20T16:24:13.216Z,60.78
2019-01-20T16:34:14.694Z,61.41
2019-01-20T16:44:16.180Z,62.78
2019-01-20T16:54:17.631Z,62.64
2019-01-20T17:04:19.106Z,61.68
2019-01-20T17:14:20.953Z,62.38
2019-01-20T17:24:22.401Z,63.14
2019-01-20T17:34:23.905Z,62.34
2019-01-20T17:44:25.522Z,63.58
2019-01-20T17:54:27.074Z,63.14
2019-01-20T18:04:28.747Z,63.33
2019-01-20T18:14:30.221Z,63.46
2019-01-20T18:24:31.723Z,63.21
2019-01-20T18:34:33.212Z,64.48
2019-01-20T18:44:34.702Z,65.13
2019-01-20T18:54:36.245Z,65.22
2019-01-20T19:04:37.695Z,65.13
2019-01-20T19:14:39.661Z,65.51
2019-01-20T19:24:41.150Z,65.93
2019-01-20T19:34:42.633Z,65.53
2019-01-20T19:44:44.096Z,65.72
2019-01-20T19:54:45.597Z,64.99
2019-01-20T20:04:47.046Z,64.83
2019-01-20T20:14:48.477Z,65.14
2019-01-20T20:24:49.993Z,64.48
2019-01-20T20:34:53.731Z,65.50
2019-01-20T20:44:54.939Z,66.40
2019-01-20T20:54:56.414Z,66.55
2019-01-20T21:04:57.915Z,66.56
2019-01-20T21:15:03.341Z,67.20
2019-01-20T21:25:07.642Z,67.37
2019-01-20T21:35:10.090Z,67.33
2019-01-20T21:45:16.021Z,65.65
2019-01-20T21:55:18.458Z,65.64
2019-01-20T22:05:20.233Z,65.83
2019-01-20T22:15:21.671Z,65.53
2019-01-20T22:25:23.374Z,65.32
2019-01-20T22:35:24.866Z,66.28
2019-01-20T22:45:26.501Z,66.05
2019-01-20T22:55:27.990Z,65.87
2019-01-20T23:05:29.466Z,66.09
2019-01-20T23:15:30.953Z,66.16
2019-01-20T23:25:32.444Z,66.48
2019-01-20T23:35:33.986Z,66.55
2019-01-20T23:45:35.401Z,66.80
2019-01-20T23:55:36.873Z,67.26
